Time;durP1;ratioP1;P1;durP2;ratioP2;P2;SDS_P1;SDS_P2;PMS_P1;PMS_P2;Temp;Humidity;BMP_temperature;BMP_pressure;BME280_temperature;BME280_humidity;BME280_pressure;Samples;Min_cycle;Max_cycle;Signal;HPM_P1;HPM_P2
2021/12/14 00:02:26;;;;;;;213.27;110.63;;;2.30;99.90;;;;;;5097792;28;20024;-50
2021/12/14 00:04:52;;;;;;;252.52;130.93;;;2.40;99.90;;;;;;5097830;28;20021;-50
2021/12/14 00:07:19;;;;;;;256.90;127.85;;;2.40;99.90;;;;;;5097834;28;20024;-50
2021/12/14 00:09:46;;;;;;;266.30;133.98;;;2.40;99.90;;;;;;5097683;28;20088;-50
2021/12/14 00:17:35;;;;;;;237.45;118.30;;;2.50;99.90;;;;;;5097390;28;20020;-50
2021/12/14 00:20:14;;;;;;;263.70;128.40;;;2.50;99.90;;;;;;5097618;28;20042;-50
2021/12/14 00:25:35;;;;;;;302.08;143.18;;;2.40;99.90;;;;;;5077289;28;20058;-50
2021/12/14 00:28:07;;;;;;;298.63;142.73;;;2.40;99.90;;;;;;5096384;28;20107;-50
2021/12/14 00:30:33;;;;;;;356.10;165.55;;;2.40;99.90;;;;;;5095864;28;20044;-50
2021/12/14 00:33:00;;;;;;;390.85;185.82;;;2.50;99.90;;;;;;5097018;28;20036;-50
2021/12/14 00:35:26;;;;;;;448.17;213.77;;;2.40;99.90;;;;;;5097137;28;20493;-50
2021/12/14 00:37:54;;;;;;;535.67;253.80;;;2.50;99.90;;;;;;5095726;28;20374;-50
2021/12/14 00:40:31;;;;;;;622.35;300.38;;;2.50;99.90;;;;;;5097163;28;20153;-50
2021/12/14 00:42:59;;;;;;;622.10;294.83;;;2.50;99.90;;;;;;5096791;28;20039;-50
2021/12/14 00:45:28;;;;;;;647.80;304.75;;;2.50;99.90;;;;;;5096966;28;20020;-50
2021/12/14 00:47:55;;;;;;;635.38;302.08;;;2.50;99.90;;;;;;5095495;28;20431;-50
2021/12/14 00:50:23;;;;;;;595.95;282.08;;;2.40;99.90;;;;;;5096906;28;20020;-50
2021/12/14 00:52:50;;;;;;;503.05;234.05;;;2.40;99.90;;;;;;5096710;28;20402;-50
2021/12/14 00:55:24;;;;;;;481.35;226.75;;;2.30;99.90;;;;;;5096697;28;20032;-50
2021/12/14 00:57:51;;;;;;;431.42;207.02;;;2.30;99.90;;;;;;5096832;28;20028;-50
2021/12/14 01:00:24;;;;;;;419.10;201.05;;;2.30;99.90;;;;;;5095269;28;20024;-50
2021/12/14 01:02:50;;;;;;;414.08;199.57;;;2.30;99.90;;;;;;5095372;28;20039;-50
2021/12/14 01:05:22;;;;;;;425.90;210.23;;;2.30;99.90;;;;;;5096601;28;20028;-50
2021/12/14 01:07:48;;;;;;;444.58;216.20;;;2.30;99.90;;;;;;5095196;28;20027;-50
2021/12/14 01:10:41;;;;;;;430.77;210.45;;;2.30;99.90;;;;;;5096643;28;20141;-50
2021/12/14 01:13:10;;;;;;;401.73;197.38;;;2.40;99.90;;;;;;5096219;28;20024;-50
2021/12/14 01:15:59;;;;;;;411.80;205.00;;;2.30;99.90;;;;;;5096337;28;20047;-50
2021/12/14 01:18:45;;;;;;;424.25;205.13;;;2.30;99.90;;;;;;5094855;28;20035;-50
2021/12/14 01:21:42;;;;;;;381.02;187.15;;;2.30;99.90;;;;;;5096174;28;20473;-50
2021/12/14 01:27:05;;;;;;;444.10;216.63;;;2.50;99.90;;;;;;5096077;28;20077;-50
2021/12/14 01:29:32;;;;;;;432.77;217.73;;;2.50;99.90;;;;;;5094609;28;20476;-50
2021/12/14 01:32:01;;;;;;;460.65;230.30;;;2.50;99.90;;;;;;5096022;28;20020;-50
2021/12/14 01:34:31;;;;;;;474.13;232.43;;;2.50;99.90;;;;;;5094584;28;20071;-50
2021/12/14 01:37:05;;;;;;;470.45;234.68;;;2.50;99.90;;;;;;5094618;28;20517;-50
2021/12/14 01:42:18;;;;;;;461.80;232.07;;;2.40;99.90;;;;;;5094450;28;20115;-50
2021/12/14 01:44:49;;;;;;;475.52;236.50;;;2.50;99.90;;;;;;5095648;28;20028;-50
2021/12/14 01:47:27;;;;;;;464.88;228.27;;;2.50;99.90;;;;;;5094534;28;20161;-50
2021/12/14 01:50:24;;;;;;;435.90;223.50;;;2.50;99.90;;;;;;5095826;28;20159;-50
2021/12/14 01:53:09;;;;;;;456.83;227.57;;;2.50;99.90;;;;;;5095590;28;20118;-50
2021/12/14 01:55:38;;;;;;;495.60;249.75;;;2.60;99.90;;;;;;5094252;28;20046;-50
2021/12/14 01:58:09;;;;;;;466.15;239.15;;;2.50;99.90;;;;;;5095384;28;20024;-50
2021/12/14 02:00:44;;;;;;;461.88;234.30;;;2.50;99.90;;;;;;5094240;28;20077;-50
2021/12/14 02:03:13;;;;;;;449.55;225.23;;;2.60;99.90;;;;;;5095327;28;20055;-50
2021/12/14 02:05:47;;;;;;;427.33;213.18;;;2.60;99.90;;;;;;5095450;28;20093;-50
2021/12/14 02:08:19;;;;;;;437.83;215.50;;;2.50;99.90;;;;;;5095325;28;20489;-50
2021/12/14 02:10:49;;;;;;;426.42;216.93;;;2.50;99.90;;;;;;5094005;28;20583;-50
2021/12/14 02:13:23;;;;;;;417.67;206.48;;;2.40;99.90;;;;;;5093796;28;20043;-50
2021/12/14 02:15:50;;;;;;;412.35;203.82;;;2.50;99.90;;;;;;5128206;27;20044;-50
2021/12/14 02:18:23;;;;;;;415.88;213.05;;;2.40;99.90;;;;;;5127945;27;20432;-50
2021/12/14 02:21:01;;;;;;;347.40;168.98;;;2.40;99.90;;;;;;5093835;28;20573;-50
2021/12/14 02:23:29;;;;;;;318.67;155.13;;;2.40;99.90;;;;;;5093524;28;20405;-50
2021/12/14 02:25:58;;;;;;;317.50;160.55;;;2.30;99.90;;;;;;5093793;28;20024;-50
2021/12/14 02:28:25;;;;;;;325.60;162.70;;;2.30;99.90;;;;;;5093800;28;20427;-50
2021/12/14 02:30:54;;;;;;;425.10;215.82;;;2.40;99.90;;;;;;5093722;28;20024;-50
2021/12/14 02:33:25;;;;;;;367.17;186.65;;;2.30;99.90;;;;;;5093650;28;20031;-50
2021/12/14 02:35:53;;;;;;;359.77;177.88;;;2.30;99.90;;;;;;5093660;28;20028;-50
2021/12/14 02:38:22;;;;;;;354.25;176.82;;;2.30;99.90;;;;;;5093679;28;20036;-50
2021/12/14 02:40:58;;;;;;;374.48;180.43;;;2.30;99.90;;;;;;5095081;28;20024;-50
2021/12/14 02:43:37;;;;;;;;;;;2.40;99.90;;;;;;5093807;28;20102;-50
2021/12/14 02:46:10;;;;;;;573.80;258.60;;;2.40;99.90;;;;;;5093456;28;19912;-50
2021/12/14 02:48:38;;;;;;;496.02;221.98;;;2.30;99.90;;;;;;5093369;28;20032;-50
2021/12/14 02:51:19;;;;;;;460.63;220.85;;;2.20;99.90;;;;;;5094109;28;20554;-51
2021/12/14 02:53:47;;;;;;;451.45;211.23;;;2.20;99.90;;;;;;5093429;28;20040;-50
2021/12/14 02:56:17;;;;;;;422.85;203.65;;;2.20;99.90;;;;;;5094621;28;20043;-50
2021/12/14 02:58:44;;;;;;;446.92;217.95;;;2.30;99.90;;;;;;5094578;28;20061;-50
2021/12/14 03:01:12;;;;;;;419.80;202.75;;;2.30;99.90;;;;;;5093189;28;20039;-50
2021/12/14 03:03:39;;;;;;;393.83;194.85;;;2.20;99.90;;;;;;5093334;28;20478;-50
2021/12/14 03:06:09;;;;;;;453.75;214.30;;;2.20;99.90;;;;;;5093184;28;20473;-50
2021/12/14 03:08:44;;;;;;;432.80;209.60;;;2.30;99.90;;;;;;5093247;28;20025;-50
2021/12/14 03:11:12;;;;;;;446.73;216.18;;;2.30;99.90;;;;;;5093139;28;20611;-50
2021/12/14 03:13:51;;;;;;;429.30;208.15;;;2.20;99.90;;;;;;5094461;28;20028;-50
2021/12/14 03:16:24;;;;;;;444.35;216.90;;;2.20;99.90;;;;;;5094431;28;20036;-50
2021/12/14 03:18:53;;;;;;;451.80;225.73;;;2.20;99.90;;;;;;5127112;28;20039;-50
2021/12/14 03:21:32;;;;;;;447.48;223.68;;;2.20;99.90;;;;;;5094724;28;20460;-50
2021/12/14 03:24:05;;;;;;;442.42;221.70;;;2.30;99.90;;;;;;5094163;28;20373;-50
2021/12/14 03:26:33;;;;;;;440.35;217.35;;;2.20;99.90;;;;;;5094439;28;20122;-50
2021/12/14 03:29:09;;;;;;;448.48;225.18;;;2.10;99.90;;;;;;5094482;28;20080;-50
2021/12/14 03:31:44;;;;;;;416.27;207.80;;;2.10;99.90;;;;;;5093012;28;20123;-50
2021/12/14 03:34:18;;;;;;;420.77;212.88;;;2.30;99.90;;;;;;5093030;28;20028;-50
2021/12/14 03:36:51;;;;;;;447.05;223.63;;;2.20;99.90;;;;;;5094165;28;20032;-50
2021/12/14 03:39:21;;;;;;;398.25;198.27;;;2.20;99.90;;;;;;5110028;28;20062;-50
2021/12/14 03:41:52;;;;;;;397.38;197.77;;;2.30;99.90;;;;;;5093058;28;20089;-50
2021/12/14 03:44:25;;;;;;;407.52;201.02;;;2.30;99.90;;;;;;5076417;28;20036;-50
2021/12/14 03:46:59;;;;;;;419.83;207.52;;;2.20;99.90;;;;;;5092902;28;20024;-50
2021/12/14 03:49:33;;;;;;;411.25;207.32;;;2.30;99.90;;;;;;5092884;28;20484;-50
2021/12/14 03:51:59;;;;;;;417.10;215.38;;;2.30;99.90;;;;;;5092674;28;20556;-50
2021/12/14 03:54:27;;;;;;;390.38;194.25;;;2.20;99.90;;;;;;5092913;28;20126;-50
2021/12/14 03:56:54;;;;;;;419.40;208.15;;;2.30;99.90;;;;;;5092705;28;20053;-50
2021/12/14 03:59:27;;;;;;;410.42;207.98;;;2.30;99.90;;;;;;5092710;28;20055;-50
2021/12/14 04:01:54;;;;;;;390.15;194.90;;;2.30;99.90;;;;;;5093572;28;20028;-50
2021/12/14 04:04:31;;;;;;;392.85;197.20;;;2.30;99.90;;;;;;5096416;28;20032;-50
2021/12/14 04:07:02;;;;;;;370.65;189.82;;;2.30;99.90;;;;;;5096371;28;20024;-50
2021/12/14 04:09:31;;;;;;;387.50;194.45;;;2.30;99.90;;;;;;5096316;28;20020;-50
2021/12/14 04:11:59;;;;;;;363.25;174.20;;;2.30;99.90;;;;;;5096155;28;20070;-50
2021/12/14 04:14:29;;;;;;;377.63;192.95;;;2.30;99.90;;;;;;5113271;28;20023;-50
2021/12/14 04:16:58;;;;;;;382.05;195.80;;;2.30;99.90;;;;;;5096116;28;20024;-50
2021/12/14 04:19:29;;;;;;;356.33;181.80;;;2.30;99.90;;;;;;5096103;28;20451;-50
2021/12/14 04:22:04;;;;;;;367.90;184.40;;;2.30;99.90;;;;;;5096058;28;20028;-50
2021/12/14 04:24:34;;;;;;;364.13;181.13;;;2.40;99.90;;;;;;5095900;28;20038;-50
2021/12/14 04:27:05;;;;;;;355.17;185.55;;;2.40;99.90;;;;;;5097310;28;20020;-50
2021/12/14 04:29:31;;;;;;;370.25;189.10;;;2.40;99.90;;;;;;5095970;28;20390;-50
2021/12/14 04:32:01;;;;;;;292.20;145.80;;;2.40;99.90;;;;;;5095853;28;20027;-50
2021/12/14 04:34:30;;;;;;;280.10;140.95;;;2.40;99.90;;;;;;5095823;28;20070;-50
2021/12/14 04:36:56;;;;;;;289.67;148.80;;;2.50;99.90;;;;;;5095751;28;20386;-50
2021/12/14 04:53:24;;;;;;;343.95;173.15;;;2.40;99.90;;;;;;5095270;28;20047;-50
2021/12/14 04:55:56;;;;;;;355.05;180.13;;;2.30;99.90;;;;;;5095528;28;20195;-50
2021/12/14 04:58:32;;;;;;;377.55;187.93;;;2.40;99.90;;;;;;5095309;28;20024;-50
2021/12/14 05:00:59;;;;;;;376.23;188.02;;;2.40;99.90;;;;;;5095258;28;20062;-50
2021/12/14 05:03:34;;;;;;;354.23;181.23;;;2.40;99.90;;;;;;5095146;28;20063;-50
2021/12/14 05:06:14;;;;;;;374.40;187.65;;;2.50;99.90;;;;;;5095146;28;20036;-50
2021/12/14 05:11:12;;;;;;;353.88;173.32;;;2.40;99.90;;;;;;5095228;28;20050;-50
2021/12/14 05:13:49;;;;;;;336.33;165.13;;;2.40;99.90;;;;;;5091420;28;20062;-50
2021/12/14 05:16:28;;;;;;;368.20;185.07;;;2.40;99.90;;;;;;5091470;28;20037;-50
2021/12/14 05:18:59;;;;;;;322.67;164.57;;;2.30;99.90;;;;;;5128813;27;20063;-50
2021/12/14 05:21:33;;;;;;;343.95;168.35;;;2.30;99.90;;;;;;5094924;28;20032;-50
2021/12/14 05:24:01;;;;;;;344.52;165.90;;;2.30;99.90;;;;;;5094689;28;20036;-50
2021/12/14 05:26:32;;;;;;;348.48;167.77;;;2.40;99.90;;;;;;5095207;28;20039;-50
2021/12/14 05:28:59;;;;;;;367.58;168.05;;;2.30;99.90;;;;;;5094656;28;20020;-50
2021/12/14 05:31:26;;;;;;;418.02;190.60;;;2.40;99.90;;;;;;5094613;28;20046;-50
2021/12/14 05:33:52;;;;;;;368.40;166.40;;;2.50;99.90;;;;;;5094868;28;20431;-50
2021/12/14 05:36:25;;;;;;;417.27;184.13;;;2.40;99.90;;;;;;5094489;28;20054;-51
2021/12/14 05:39:17;;;;;;;408.20;179.90;;;2.40;99.90;;;;;;5094769;28;20436;-50
2021/12/14 05:44:35;;;;;;;424.27;173.93;;;2.40;99.90;;;;;;5094453;28;20051;-51
2021/12/14 05:47:07;;;;;;;458.45;177.45;;;2.40;99.90;;;;;;5094428;28;20032;-50
2021/12/14 05:49:53;;;;;;;456.77;189.48;;;2.40;99.90;;;;;;5095124;28;20031;-50
2021/12/14 05:52:25;;;;;;;437.70;174.80;;;2.40;99.90;;;;;;5095422;28;20048;-50
2021/12/14 05:54:55;;;;;;;491.95;201.68;;;2.40;99.90;;;;;;5094459;28;20439;-50
2021/12/14 05:57:25;;;;;;;434.77;179.65;;;2.40;99.90;;;;;;5094115;28;20032;-50
2021/12/14 05:59:54;;;;;;;408.85;163.60;;;2.40;99.90;;;;;;5094307;28;20095;-50
2021/12/14 06:02:23;;;;;;;388.55;151.90;;;2.50;99.90;;;;;;5094131;28;20024;-50
2021/12/14 06:04:53;;;;;;;375.27;142.30;;;2.40;99.90;;;;;;5094170;28;20032;-50
2021/12/14 06:07:21;;;;;;;385.50;137.07;;;2.40;99.90;;;;;;5094051;28;20477;-50
2021/12/14 06:09:51;;;;;;;288.60;112.22;;;2.30;99.90;;;;;;5093928;28;20024;-50
2021/12/14 06:12:27;;;;;;;304.75;116.95;;;2.30;99.90;;;;;;5093946;28;20027;-50
2021/12/14 06:14:58;;;;;;;329.58;129.05;;;2.40;99.90;;;;;;5127751;27;20024;-50
2021/12/14 06:17:35;;;;;;;437.30;171.77;;;2.30;99.90;;;;;;5095357;28;20473;-50
2021/12/14 06:20:09;;;;;;;358.88;141.13;;;2.20;99.90;;;;;;5082228;28;20036;-50
2021/12/14 06:22:36;;;;;;;327.90;132.85;;;2.10;99.90;;;;;;5080132;28;20025;-50
2021/12/14 06:25:08;;;;;;;354.95;147.80;;;2.20;99.90;;;;;;5090319;28;20016;-50
2021/12/14 06:27:36;;;;;;;360.73;148.85;;;2.20;99.90;;;;;;5083892;28;20597;-50
2021/12/14 06:30:07;;;;;;;382.08;146.27;;;2.20;99.90;;;;;;5091422;28;20020;-50
2021/12/14 06:32:39;;;;;;;393.83;147.70;;;2.20;99.90;;;;;;5074324;28;20037;-50
2021/12/14 06:35:20;;;;;;;388.02;151.02;;;2.30;99.90;;;;;;5094648;28;20027;-50
2021/12/14 06:38:10;;;;;;;430.38;176.95;;;2.30;99.90;;;;;;5091693;28;20032;-50
2021/12/14 06:40:48;;;;;;;480.33;198.18;;;2.30;99.90;;;;;;5087645;28;20020;-51
2021/12/14 06:43:21;;;;;;;508.85;219.05;;;2.40;99.90;;;;;;5089751;28;20036;-51
2021/12/14 06:45:57;;;;;;;535.15;226.38;;;2.40;99.90;;;;;;5093417;28;20028;-53
2021/12/14 06:48:39;;;;;;;496.52;206.60;;;2.50;99.90;;;;;;5103445;28;20028;-51
2021/12/14 06:51:14;;;;;;;518.80;226.00;;;2.50;99.90;;;;;;5084848;28;20527;-52
2021/12/14 06:54:00;;;;;;;449.27;191.75;;;2.40;99.90;;;;;;5105986;28;20085;-51
2021/12/14 06:56:51;;;;;;;484.00;203.20;;;2.50;99.90;;;;;;5105474;28;20082;-51
2021/12/14 06:59:32;;;;;;;446.25;190.82;;;2.50;99.90;;;;;;5070581;28;20084;-51
2021/12/14 07:02:09;;;;;;;420.63;174.88;;;2.40;99.90;;;;;;5088605;28;20028;-51
2021/12/14 07:04:55;;;;;;;447.60;186.10;;;2.50;99.90;;;;;;5044900;28;20043;-51
2021/12/14 07:07:25;;;;;;;371.17;159.35;;;2.60;99.90;;;;;;5093312;28;20063;-51
2021/12/14 07:09:58;;;;;;;362.52;156.50;;;2.50;99.90;;;;;;5093401;28;20448;-51
2021/12/14 07:12:29;;;;;;;384.15;157.35;;;2.50;99.90;;;;;;5093634;28;20038;-51
2021/12/14 07:15:02;;;;;;;475.05;192.45;;;2.50;99.90;;;;;;5092247;28;20024;-51
2021/12/14 07:17:42;;;;;;;357.98;146.10;;;2.50;99.90;;;;;;5092265;28;20055;-51
2021/12/14 07:20:11;;;;;;;431.63;170.52;;;2.60;99.90;;;;;;5088588;28;20031;-51
2021/12/14 07:22:44;;;;;;;401.90;159.88;;;2.60;99.90;;;;;;5086391;28;20106;-51
2021/12/14 07:25:16;;;;;;;329.27;141.27;;;2.70;99.90;;;;;;5087183;28;20130;-51
2021/12/14 07:27:46;;;;;;;343.35;142.30;;;2.70;99.90;;;;;;5089754;28;20028;-49
2021/12/14 07:30:24;;;;;;;389.55;154.25;;;2.70;99.90;;;;;;5088186;28;20054;-50
2021/12/14 07:40:37;;;;;;;284.55;109.35;;;2.80;99.90;;;;;;5105653;28;20480;-51
2021/12/14 07:43:14;;;;;;;258.70;98.78;;;3.00;99.90;;;;;;5130121;27;20028;-50
2021/12/14 07:45:56;;;;;;;265.92;105.28;;;3.10;99.90;;;;;;5076296;28;20027;-50
2021/12/14 07:48:58;;;;;;;275.38;106.65;;;3.10;99.90;;;;;;5094449;28;20417;-51
2021/12/14 07:51:26;;;;;;;244.20;95.00;;;3.20;99.90;;;;;;5094199;28;20177;-51
2021/12/14 07:54:06;;;;;;;258.08;96.57;;;3.20;99.90;;;;;;5092498;28;20024;-51
2021/12/14 07:56:38;;;;;;;285.23;106.60;;;3.20;99.90;;;;;;5093693;28;20043;-52
2021/12/14 07:59:17;;;;;;;219.35;87.22;;;3.30;99.90;;;;;;5094499;28;20116;-51
2021/12/14 08:01:46;;;;;;;207.02;82.60;;;3.40;99.90;;;;;;5092073;28;20362;-51
2021/12/14 08:04:12;;;;;;;192.05;75.47;;;3.30;99.90;;;;;;5095990;28;20042;-51
2021/12/14 08:06:56;;;;;;;174.90;72.38;;;3.40;99.90;;;;;;5095523;28;20024;-52
2021/12/14 08:09:45;;;;;;;175.15;69.93;;;3.30;99.90;;;;;;5093812;28;21506;-51
2021/12/14 08:12:26;;;;;;;185.77;76.22;;;3.30;99.90;;;;;;5093970;28;20111;-51
2021/12/14 08:15:04;;;;;;;186.95;74.75;;;3.20;99.90;;;;;;5094494;28;20047;-51
2021/12/14 08:17:32;;;;;;;183.15;74.13;;;3.30;99.90;;;;;;5092215;28;20165;-51
2021/12/14 08:19:58;;;;;;;195.45;78.75;;;3.30;99.90;;;;;;5094383;28;20020;-51
2021/12/14 08:22:37;;;;;;;198.85;77.00;;;3.50;99.90;;;;;;5094412;28;20032;-51
2021/12/14 08:25:05;;;;;;;194.52;76.00;;;3.60;99.90;;;;;;5093514;28;20024;-51
2021/12/14 08:27:31;;;;;;;188.35;66.85;;;3.60;99.90;;;;;;5097167;28;20032;-51
2021/12/14 08:30:00;;;;;;;157.32;63.28;;;3.50;99.90;;;;;;5097246;28;20036;-52
2021/12/14 08:32:31;;;;;;;122.40;52.63;;;3.60;99.90;;;;;;5090816;28;20030;-51
2021/12/14 08:35:01;;;;;;;114.85;50.35;;;3.70;99.90;;;;;;5092710;28;20036;-51
2021/12/14 08:37:48;;;;;;;110.95;50.17;;;3.70;99.90;;;;;;5128304;27;20020;-51
2021/12/14 08:40:20;;;;;;;133.02;57.50;;;3.70;99.90;;;;;;5095932;28;20158;-51
2021/12/14 08:43:06;;;;;;;122.90;54.25;;;3.70;99.90;;;;;;5096573;28;20499;-51
2021/12/14 08:45:44;;;;;;;148.77;60.00;;;3.60;99.90;;;;;;5094751;28;20173;-52
2021/12/14 08:48:20;;;;;;;149.85;58.03;;;3.70;99.90;;;;;;5090129;28;20043;-51
2021/12/14 08:50:53;;;;;;;144.15;57.25;;;3.70;99.90;;;;;;5095107;28;20025;-51
2021/12/14 08:53:19;;;;;;;129.38;55.70;;;3.70;99.90;;;;;;5083425;28;20055;-51
2021/12/14 08:55:49;;;;;;;147.40;62.25;;;3.70;99.90;;;;;;5085159;28;20039;-51
2021/12/14 08:58:16;;;;;;;129.07;56.22;;;3.70;99.90;;;;;;5093820;28;20059;-51
2021/12/14 09:00:49;;;;;;;138.75;55.58;;;3.80;99.90;;;;;;5091183;28;20032;-51
2021/12/14 09:03:25;;;;;;;135.55;55.15;;;3.80;99.90;;;;;;5095526;28;20035;-50
2021/12/14 09:05:52;;;;;;;133.40;57.00;;;3.80;99.90;;;;;;5088051;28;20048;-49
2021/12/14 09:08:20;;;;;;;171.35;66.00;;;3.80;99.90;;;;;;5079930;28;20028;-49
2021/12/14 09:10:50;;;;;;;169.63;70.38;;;3.70;99.90;;;;;;5089744;28;20098;-49
2021/12/14 09:13:16;;;;;;;176.20;69.20;;;3.80;99.90;;;;;;5090278;28;20035;-49
2021/12/14 09:15:48;;;;;;;154.23;67.45;;;3.90;99.90;;;;;;5085139;28;20115;-49
2021/12/14 09:18:17;;;;;;;192.85;78.35;;;3.80;99.90;;;;;;5088434;28;20483;-49
2021/12/14 09:20:57;;;;;;;193.32;79.35;;;4.00;99.90;;;;;;5089445;28;20024;-50
2021/12/14 09:23:30;;;;;;;176.25;76.60;;;4.00;99.90;;;;;;5077997;28;20055;-50
2021/12/14 09:25:56;;;;;;;176.40;75.85;;;4.30;99.90;;;;;;5080898;28;20097;-50
2021/12/14 09:28:23;;;;;;;208.45;86.05;;;4.60;99.90;;;;;;5090355;28;20555;-51
2021/12/14 09:31:00;;;;;;;226.63;94.93;;;4.70;99.90;;;;;;5090151;28;20056;-51
2021/12/14 09:33:27;;;;;;;196.57;86.00;;;5.10;99.90;;;;;;5091511;28;20111;-49
2021/12/14 09:35:56;;;;;;;209.30;89.40;;;5.20;99.90;;;;;;5083094;28;20077;-49
2021/12/14 09:38:32;;;;;;;187.27;81.40;;;5.10;99.90;;;;;;5079645;28;20033;-49
2021/12/14 09:41:02;;;;;;;203.95;87.57;;;4.80;99.90;;;;;;5083733;28;20081;-49
2021/12/14 09:43:29;;;;;;;205.70;88.50;;;4.90;99.90;;;;;;5084839;28;20086;-49
2021/12/14 09:45:58;;;;;;;241.73;115.05;;;5.00;99.90;;;;;;5085937;28;20024;-50
2021/12/14 09:48:30;;;;;;;188.32;86.50;;;5.10;99.90;;;;;;5091845;28;20080;-49
2021/12/14 09:51:03;;;;;;;207.18;94.53;;;5.10;99.90;;;;;;5094661;28;20024;-50
2021/12/14 09:53:29;;;;;;;202.90;100.43;;;5.20;99.90;;;;;;5091307;28;20497;-50
2021/12/14 09:55:57;;;;;;;158.35;71.80;;;5.00;99.90;;;;;;5095428;28;20035;-50
2021/12/14 09:58:34;;;;;;;134.73;61.00;;;5.20;99.90;;;;;;5092523;28;20363;-50
2021/12/14 10:01:25;;;;;;;159.48;70.07;;;5.50;99.90;;;;;;5090883;28;20487;-50
2021/12/14 10:03:56;;;;;;;145.53;64.80;;;5.80;99.90;;;;;;5089612;28;20469;-50
2021/12/14 10:06:24;;;;;;;;;;;6.00;99.90;;;;;;5093774;28;20106;-50
2021/12/14 10:08:57;;;;;;;166.10;76.65;;;6.10;99.90;;;;;;5087643;28;20272;-51
2021/12/14 10:11:36;;;;;;;171.18;74.22;;;6.20;99.90;;;;;;5089657;28;20013;-50
2021/12/14 10:14:05;;;;;;;177.88;76.10;;;6.60;99.90;;;;;;5090699;28;20093;-51
2021/12/14 10:16:35;;;;;;;203.35;83.20;;;6.70;99.90;;;;;;5091417;28;20428;-51
2021/12/14 10:19:07;;;;;;;206.23;86.40;;;6.80;99.90;;;;;;5093407;28;20085;-52
2021/12/14 10:21:45;;;;;;;228.43;92.00;;;6.70;99.90;;;;;;5094073;28;20039;-52
2021/12/14 10:24:11;;;;;;;230.48;89.40;;;6.80;99.90;;;;;;5087618;28;20043;-51
2021/12/14 10:26:44;;;;;;;194.07;87.28;;;7.00;99.90;;;;;;5077209;28;20085;-50
2021/12/14 10:29:13;;;;;;;210.32;94.30;;;6.90;99.90;;;;;;5093076;28;20035;-50
2021/12/14 10:31:46;;;;;;;197.35;91.10;;;7.10;99.90;;;;;;5094302;28;20554;-50
2021/12/14 10:34:25;;;;;;;188.57;82.90;;;7.20;99.90;;;;;;5094126;28;20481;-50
2021/12/14 10:37:04;;;;;;;218.25;94.82;;;7.20;99.90;;;;;;5085750;28;20059;-50
2021/12/14 10:44:57;;;;;;;242.52;108.93;;;9.20;99.90;;;;;;5074450;28;20044;-51
2021/12/14 10:47:26;;;;;;;245.25;114.57;;;10.10;99.90;;;;;;5071838;28;20048;-51
2021/12/14 10:49:53;;;;;;;236.30;110.68;;;9.90;99.90;;;;;;5074317;28;20036;-51
2021/12/14 10:52:22;;;;;;;269.63;124.70;;;9.40;99.90;;;;;;5073990;28;20522;-51
2021/12/14 10:54:56;;;;;;;283.88;131.85;;;8.60;99.90;;;;;;5074035;28;20482;-51
2021/12/14 10:57:27;;;;;;;245.25;116.10;;;7.90;99.90;;;;;;5074496;28;20051;-51
2021/12/14 10:59:55;;;;;;;225.80;100.97;;;8.20;99.90;;;;;;5074251;28;20025;-51
2021/12/14 11:02:24;;;;;;;264.40;121.75;;;8.10;99.90;;;;;;5074431;28;20119;-50
2021/12/14 11:04:58;;;;;;;217.43;102.03;;;8.30;99.90;;;;;;5073526;28;20029;-50
2021/12/14 11:07:41;;;;;;;205.00;97.57;;;8.30;99.90;;;;;;5074097;28;20046;-50
2021/12/14 11:10:17;;;;;;;257.85;119.95;;;8.40;99.90;;;;;;5099816;28;20031;-50
2021/12/14 11:12:47;;;;;;;212.52;98.90;;;8.40;99.90;;;;;;5097326;28;20036;-50
2021/12/14 11:15:13;;;;;;;215.10;100.22;;;8.20;99.90;;;;;;5081527;28;20028;-50
2021/12/14 11:20:33;;;;;;;200.30;92.85;;;8.10;99.90;;;;;;5093913;28;20024;-52
2021/12/14 11:22:59;;;;;;;188.95;88.15;;;8.30;99.90;;;;;;5080763;28;20035;-52
2021/12/14 11:25:28;;;;;;;210.93;100.93;;;8.60;99.90;;;;;;5078608;28;20350;-52
2021/12/14 11:28:06;;;;;;;238.52;112.28;;;8.70;99.90;;;;;;5088447;28;20035;-52
2021/12/14 11:30:54;;;;;;;228.93;109.97;;;9.80;99.90;;;;;;5079978;28;20036;-49
2021/12/14 11:33:27;;;;;;;208.60;101.38;;;10.40;99.90;;;;;;5094400;28;20022;-50
2021/12/14 11:36:02;;;;;;;228.45;109.40;;;10.70;99.90;;;;;;5095944;28;20489;-51
2021/12/14 11:38:43;;;;;;;204.52;96.97;;;11.20;99.90;;;;;;5097693;28;20491;-50
2021/12/14 11:41:50;;;;;;;223.75;110.03;;;11.80;99.90;;;;;;5097802;28;20031;-50
2021/12/14 11:44:22;;;;;;;212.80;104.10;;;12.40;98.60;;;;;;5059535;28;20491;-51
2021/12/14 11:47:22;;;;;;;184.75;90.65;;;13.20;96.90;;;;;;5093768;28;20040;-52
2021/12/14 11:49:51;;;;;;;184.80;88.80;;;13.60;96.90;;;;;;5095377;28;20389;-52
2021/12/14 11:52:53;;;;;;;184.48;88.38;;;13.90;93.00;;;;;;5095622;28;20052;-52
2021/12/14 11:55:37;;;;;;;142.43;68.10;;;13.60;90.80;;;;;;5097583;28;20032;-51
2021/12/14 11:58:50;;;;;;;134.98;65.05;;;13.10;90.60;;;;;;5097093;28;20021;-51
2021/12/14 12:01:33;;;;;;;107.63;53.50;;;12.90;92.30;;;;;;5092038;28;20040;-49
2021/12/14 12:04:10;;;;;;;99.00;49.70;;;12.10;94.40;;;;;;5091456;28;20028;-50
2021/12/14 12:09:33;;;;;;;126.20;60.80;;;13.50;95.30;;;;;;5078869;28;20032;-52
2021/12/14 12:12:05;;;;;;;120.13;56.30;;;13.70;93.40;;;;;;5095053;28;20031;-52
2021/12/14 12:14:42;;;;;;;111.47;52.78;;;14.30;88.40;;;;;;5093220;28;20027;-50
2021/12/14 12:17:28;;;;;;;141.02;67.22;;;13.30;90.90;;;;;;5093176;28;20432;-50
2021/12/14 12:20:12;;;;;;;122.70;59.25;;;12.40;95.00;;;;;;5091270;28;20036;-50
2021/12/14 12:22:40;;;;;;;113.72;55.55;;;11.70;95.20;;;;;;5091525;28;20040;-51
2021/12/14 12:25:09;;;;;;;120.07;57.22;;;10.80;97.90;;;;;;5097236;28;20123;-51
2021/12/14 12:27:45;;;;;;;106.70;53.92;;;10.40;99.90;;;;;;5093205;28;20097;-51
2021/12/14 12:30:29;;;;;;;102.40;51.70;;;10.60;99.60;;;;;;5090679;28;20882;-51
2021/12/14 12:32:57;;;;;;;100.95;51.25;;;10.10;99.90;;;;;;5093440;28;20028;-51
2021/12/14 12:35:41;;;;;;;114.75;55.05;;;9.80;99.90;;;;;;5093535;28;20516;-52
2021/12/14 12:38:55;;;;;;;102.70;49.85;;;9.50;99.90;;;;;;5090265;28;20032;-52
2021/12/14 12:41:25;;;;;;;97.45;45.92;;;9.40;99.90;;;;;;5097486;28;20036;-49
2021/12/14 12:43:55;;;;;;;;;;;9.00;99.90;;;;;;5093684;28;20135;-49
2021/12/14 12:46:24;;;;;;;117.28;51.03;;;8.60;99.90;;;;;;5087404;28;19912;-49
2021/12/14 12:49:07;;;;;;;123.10;52.88;;;8.40;99.90;;;;;;5088853;28;20066;-51
2021/12/14 12:51:54;;;;;;;120.35;51.60;;;8.30;99.90;;;;;;5088029;28;20509;-50
2021/12/14 12:54:43;;;;;;;117.00;53.35;;;8.10;99.90;;;;;;5084991;28;20496;-52
2021/12/14 12:57:40;;;;;;;123.45;55.67;;;7.90;99.90;;;;;;5084997;28;20043;-51
2021/12/14 13:00:16;;;;;;;123.43;54.47;;;7.90;99.90;;;;;;5094039;28;20107;-51
2021/12/14 13:02:50;;;;;;;121.90;52.08;;;8.00;99.90;;;;;;5091001;28;20496;-51
2021/12/14 13:05:16;;;;;;;108.13;53.22;;;7.90;99.90;;;;;;5092854;28;20024;-51
2021/12/14 13:07:50;;;;;;;111.53;51.53;;;7.80;99.90;;;;;;5091066;28;20499;-51
2021/12/14 13:10:38;;;;;;;106.97;51.75;;;7.70;99.90;;;;;;5091764;28;20036;-51
2021/12/14 13:13:10;;;;;;;102.25;48.75;;;7.60;99.90;;;;;;5091354;28;20547;-50
2021/12/14 13:16:07;;;;;;;110.10;50.70;;;7.60;99.90;;;;;;5094366;28;20016;-50
2021/12/14 13:18:35;;;;;;;115.28;51.88;;;7.50;99.90;;;;;;5092798;28;20044;-50
2021/12/14 13:21:13;;;;;;;114.80;52.78;;;7.40;99.90;;;;;;5092543;28;20542;-52
2021/12/14 13:23:43;;;;;;;119.53;54.85;;;7.40;99.90;;;;;;5093430;28;20466;-50
2021/12/14 13:26:38;;;;;;;122.63;53.88;;;7.30;99.90;;;;;;5092649;28;20031;-50
2021/12/14 13:29:24;;;;;;;121.60;51.28;;;7.20;99.90;;;;;;5089556;28;20035;-50
2021/12/14 13:31:57;;;;;;;123.80;54.03;;;7.50;99.90;;;;;;5093194;28;20024;-50
2021/12/14 13:34:35;;;;;;;106.90;45.53;;;7.70;99.90;;;;;;5092571;28;20024;-50
2021/12/14 13:37:02;;;;;;;121.38;52.13;;;7.60;99.90;;;;;;5093856;28;20066;-50
2021/12/14 13:39:29;;;;;;;107.22;48.80;;;7.50;99.90;;;;;;5094100;28;20028;-50
2021/12/14 13:42:07;;;;;;;91.13;41.28;;;7.40;99.90;;;;;;5091115;28;20039;-50
2021/12/14 13:44:40;;;;;;;96.95;44.20;;;7.10;99.90;;;;;;5093907;28;20028;-50
2021/12/14 13:47:11;;;;;;;97.60;42.88;;;6.90;99.90;;;;;;5082062;28;20029;-50